sensor_id;sensor_type;location;lat;lon;timestamp;P1;durP1;ratioP1;P2;durP2;ratioP2
41456;SDS011;27197;51.752;5.220;2023-08-21T00:01:32;4.45;;;1.32;;
41456;SDS011;27197;51.752;5.220;2023-08-21T00:04:04;5.03;;;1.52;;
41456;SDS011;27197;51.752;5.220;2023-08-21T00:06:34;8.43;;;1.60;;
41456;SDS011;27197;51.752;5.220;2023-08-21T00:09:05;5.47;;;1.50;;
41456;SDS011;27197;51.752;5.220;2023-08-21T00:11:34;7.05;;;2.00;;
41456;SDS011;27197;51.752;5.220;2023-08-21T00:14:05;5.70;;;1.92;;
41456;SDS011;27197;51.752;5.220;2023-08-21T00:16:34;5.17;;;1.87;;
41456;SDS011;27197;51.752;5.220;2023-08-21T00:19:04;5.10;;;1.50;;
41456;SDS011;27197;51.752;5.220;2023-08-21T00:21:37;4.75;;;1.37;;
41456;SDS011;27197;51.752;5.220;2023-08-21T00:24:08;3.70;;;1.70;;
41456;SDS011;27197;51.752;5.220;2023-08-21T00:26:37;3.95;;;1.20;;
41456;SDS011;27197;51.752;5.220;2023-08-21T00:29:08;5.40;;;1.42;;
41456;SDS011;27197;51.752;5.220;2023-08-21T00:31:38;7.25;;;1.57;;
41456;SDS011;27197;51.752;5.220;2023-08-21T00:34:08;3.90;;;1.45;;
41456;SDS011;27197;51.752;5.220;2023-08-21T00:36:39;3.83;;;1.22;;
41456;SDS011;27197;51.752;5.220;2023-08-21T00:39:09;4.70;;;1.55;;
41456;SDS011;27197;51.752;5.220;2023-08-21T00:41:38;3.67;;;1.87;;
41456;SDS011;27197;51.752;5.220;2023-08-21T00:44:08;4.17;;;1.92;;
41456;SDS011;27197;51.752;5.220;2023-08-21T00:46:38;3.72;;;1.42;;
41456;SDS011;27197;51.752;5.220;2023-08-21T00:49:12;3.60;;;1.42;;
41456;SDS011;27197;51.752;5.220;2023-08-21T00:51:44;6.22;;;1.52;;
41456;SDS011;27197;51.752;5.220;2023-08-21T00:54:14;4.47;;;1.55;;
41456;SDS011;27197;51.752;5.220;2023-08-21T00:56:46;4.83;;;1.47;;
41456;SDS011;27197;51.752;5.220;2023-08-21T00:59:20;4.92;;;2.00;;
41456;SDS011;27197;51.752;5.220;2023-08-21T01:01:52;4.90;;;2.00;;
41456;SDS011;27197;51.752;5.220;2023-08-21T01:04:21;3.20;;;1.67;;
41456;SDS011;27197;51.752;5.220;2023-08-21T01:06:51;7.37;;;2.25;;
41456;SDS011;27197;51.752;5.220;2023-08-21T01:09:28;7.78;;;2.25;;
41456;SDS011;27197;51.752;5.220;2023-08-21T01:46:12;4.72;;;1.85;;
41456;SDS011;27197;51.752;5.220;2023-08-21T01:48:41;5.20;;;2.10;;
41456;SDS011;27197;51.752;5.220;2023-08-21T01:51:15;4.58;;;1.70;;
41456;SDS011;27197;51.752;5.220;2023-08-21T01:53:52;4.85;;;1.90;;
41456;SDS011;27197;51.752;5.220;2023-08-21T01:56:23;5.37;;;1.72;;
41456;SDS011;27197;51.752;5.220;2023-08-21T01:58:54;3.22;;;1.70;;
41456;SDS011;27197;51.752;5.220;2023-08-21T02:01:23;6.05;;;2.15;;
41456;SDS011;27197;51.752;5.220;2023-08-21T02:03:58;3.55;;;1.70;;
41456;SDS011;27197;51.752;5.220;2023-08-21T02:06:28;5.05;;;1.85;;
41456;SDS011;27197;51.752;5.220;2023-08-21T02:09:01;4.65;;;2.08;;
41456;SDS011;27197;51.752;5.220;2023-08-21T02:11:31;6.35;;;1.82;;
41456;SDS011;27197;51.752;5.220;2023-08-21T02:14:02;4.30;;;2.33;;
41456;SDS011;27197;51.752;5.220;2023-08-21T02:16:32;6.83;;;1.80;;
41456;SDS011;27197;51.752;5.220;2023-08-21T02:19:06;6.60;;;2.55;;
41456;SDS011;27197;51.752;5.220;2023-08-21T02:21:35;5.20;;;2.22;;
41456;SDS011;27197;51.752;5.220;2023-08-21T02:24:08;5.92;;;2.70;;
41456;SDS011;27197;51.752;5.220;2023-08-21T02:26:38;3.52;;;2.50;;
41456;SDS011;27197;51.752;5.220;2023-08-21T02:29:08;5.60;;;2.60;;
41456;SDS011;27197;51.752;5.220;2023-08-21T02:31:42;4.70;;;2.60;;
41456;SDS011;27197;51.752;5.220;2023-08-21T02:34:12;4.25;;;2.33;;
41456;SDS011;27197;51.752;5.220;2023-08-21T02:36:44;5.12;;;2.20;;
41456;SDS011;27197;51.752;5.220;2023-08-21T02:39:14;5.45;;;2.40;;
41456;SDS011;27197;51.752;5.220;2023-08-21T02:41:49;5.60;;;2.45;;
41456;SDS011;27197;51.752;5.220;2023-08-21T02:44:22;4.37;;;2.40;;
41456;SDS011;27197;51.752;5.220;2023-08-21T02:46:53;6.97;;;2.47;;
41456;SDS011;27197;51.752;5.220;2023-08-21T02:49:24;4.60;;;2.30;;
41456;SDS011;27197;51.752;5.220;2023-08-21T02:51:55;4.60;;;2.60;;
41456;SDS011;27197;51.752;5.220;2023-08-21T02:54:26;4.37;;;2.12;;
41456;SDS011;27197;51.752;5.220;2023-08-21T02:56:58;4.37;;;2.12;;
41456;SDS011;27197;51.752;5.220;2023-08-21T02:59:35;7.03;;;2.35;;
41456;SDS011;27197;51.752;5.220;2023-08-21T03:02:04;5.90;;;2.40;;
41456;SDS011;27197;51.752;5.220;2023-08-21T03:04:37;4.37;;;2.12;;
41456;SDS011;27197;51.752;5.220;2023-08-21T03:33:57;4.03;;;2.30;;
41456;SDS011;27197;51.752;5.220;2023-08-21T03:36:27;4.33;;;2.12;;
41456;SDS011;27197;51.752;5.220;2023-08-21T03:38:59;5.60;;;2.33;;
41456;SDS011;27197;51.752;5.220;2023-08-21T03:41:30;5.25;;;2.72;;
41456;SDS011;27197;51.752;5.220;2023-08-21T03:44:02;5.65;;;2.62;;
41456;SDS011;27197;51.752;5.220;2023-08-21T03:46:36;4.95;;;2.87;;
41456;SDS011;27197;51.752;5.220;2023-08-21T03:49:05;4.25;;;2.52;;
41456;SDS011;27197;51.752;5.220;2023-08-21T03:51:35;5.67;;;2.98;;
41456;SDS011;27197;51.752;5.220;2023-08-21T03:54:10;4.58;;;2.33;;
41456;SDS011;27197;51.752;5.220;2023-08-21T03:56:40;5.42;;;2.47;;
41456;SDS011;27197;51.752;5.220;2023-08-21T03:59:10;5.22;;;2.60;;
41456;SDS011;27197;51.752;5.220;2023-08-21T04:01:41;5.53;;;2.72;;
41456;SDS011;27197;51.752;5.220;2023-08-21T04:04:10;4.62;;;2.60;;
41456;SDS011;27197;51.752;5.220;2023-08-21T04:06:44;6.78;;;2.77;;
41456;SDS011;27197;51.752;5.220;2023-08-21T04:09:13;4.95;;;2.40;;
41456;SDS011;27197;51.752;5.220;2023-08-21T04:11:44;3.83;;;2.25;;
41456;SDS011;27197;51.752;5.220;2023-08-21T04:14:16;4.20;;;2.35;;
41456;SDS011;27197;51.752;5.220;2023-08-21T04:16:46;6.50;;;3.05;;
41456;SDS011;27197;51.752;5.220;2023-08-21T04:19:15;4.40;;;2.45;;
41456;SDS011;27197;51.752;5.220;2023-08-21T04:21:45;5.92;;;3.20;;
41456;SDS011;27197;51.752;5.220;2023-08-21T04:24:18;5.12;;;3.08;;
41456;SDS011;27197;51.752;5.220;2023-08-21T04:26:48;5.25;;;2.87;;
41456;SDS011;27197;51.752;5.220;2023-08-21T04:29:19;6.90;;;3.08;;
41456;SDS011;27197;51.752;5.220;2023-08-21T04:31:50;4.35;;;2.55;;
41456;SDS011;27197;51.752;5.220;2023-08-21T04:34:20;6.65;;;2.50;;
41456;SDS011;27197;51.752;5.220;2023-08-21T04:36:50;5.42;;;2.92;;
41456;SDS011;27197;51.752;5.220;2023-08-21T04:39:22;6.95;;;3.22;;
41456;SDS011;27197;51.752;5.220;2023-08-21T04:41:52;4.87;;;2.70;;
41456;SDS011;27197;51.752;5.220;2023-08-21T04:44:22;3.95;;;2.50;;
41456;SDS011;27197;51.752;5.220;2023-08-21T04:46:52;4.58;;;3.05;;
41456;SDS011;27197;51.752;5.220;2023-08-21T04:49:23;7.20;;;2.80;;
41456;SDS011;27197;51.752;5.220;2023-08-21T04:51:56;5.25;;;2.77;;
41456;SDS011;27197;51.752;5.220;2023-08-21T04:54:26;5.65;;;2.72;;
41456;SDS011;27197;51.752;5.220;2023-08-21T04:56:56;6.10;;;3.00;;
41456;SDS011;27197;51.752;5.220;2023-08-21T04:59:27;5.10;;;3.12;;
41456;SDS011;27197;51.752;5.220;2023-08-21T05:15:44;6.55;;;3.12;;
41456;SDS011;27197;51.752;5.220;2023-08-21T05:18:14;5.00;;;2.95;;
41456;SDS011;27197;51.752;5.220;2023-08-21T05:20:44;6.53;;;3.58;;
41456;SDS011;27197;51.752;5.220;2023-08-21T05:23:16;6.25;;;2.83;;
41456;SDS011;27197;51.752;5.220;2023-08-21T05:25:48;6.42;;;3.10;;
41456;SDS011;27197;51.752;5.220;2023-08-21T05:28:20;5.87;;;2.83;;
41456;SDS011;27197;51.752;5.220;2023-08-21T05:30:50;4.62;;;2.72;;
41456;SDS011;27197;51.752;5.220;2023-08-21T05:33:21;6.22;;;3.35;;
41456;SDS011;27197;51.752;5.220;2023-08-21T05:35:50;6.92;;;3.17;;
41456;SDS011;27197;51.752;5.220;2023-08-21T05:38:19;5.47;;;2.77;;
41456;SDS011;27197;51.752;5.220;2023-08-21T05:40:49;6.78;;;3.52;;
41456;SDS011;27197;51.752;5.220;2023-08-21T05:43:19;8.20;;;4.10;;
41456;SDS011;27197;51.752;5.220;2023-08-21T05:45:52;7.53;;;3.75;;
41456;SDS011;27197;51.752;5.220;2023-08-21T05:48:21;6.78;;;3.70;;
41456;SDS011;27197;51.752;5.220;2023-08-21T05:50:53;6.62;;;3.62;;
41456;SDS011;27197;51.752;5.220;2023-08-21T05:53:23;7.30;;;2.50;;
41456;SDS011;27197;51.752;5.220;2023-08-21T05:55:54;6.60;;;3.42;;
41456;SDS011;27197;51.752;5.220;2023-08-21T05:58:27;5.00;;;2.22;;
41456;SDS011;27197;51.752;5.220;2023-08-21T06:00:57;7.15;;;3.77;;
41456;SDS011;27197;51.752;5.220;2023-08-21T06:03:32;7.17;;;3.15;;
41456;SDS011;27197;51.752;5.220;2023-08-21T06:06:02;8.70;;;2.72;;
41456;SDS011;27197;51.752;5.220;2023-08-21T06:08:31;10.45;;;3.15;;
41456;SDS011;27197;51.752;5.220;2023-08-21T06:11:03;6.05;;;3.02;;
41456;SDS011;27197;51.752;5.220;2023-08-21T06:13:33;4.22;;;2.33;;
41456;SDS011;27197;51.752;5.220;2023-08-21T06:16:07;5.85;;;3.10;;
41456;SDS011;27197;51.752;5.220;2023-08-21T06:18:39;6.95;;;3.15;;
41456;SDS011;27197;51.752;5.220;2023-08-21T06:26:52;5.95;;;2.95;;
41456;SDS011;27197;51.752;5.220;2023-08-21T06:29:23;4.33;;;1.92;;
41456;SDS011;27197;51.752;5.220;2023-08-21T06:31:53;7.15;;;3.50;;
41456;SDS011;27197;51.752;5.220;2023-08-21T06:34:23;9.48;;;3.40;;
41456;SDS011;27197;51.752;5.220;2023-08-21T06:36:53;7.80;;;3.92;;
41456;SDS011;27197;51.752;5.220;2023-08-21T06:39:25;8.95;;;4.12;;
41456;SDS011;27197;51.752;5.220;2023-08-21T06:41:57;8.08;;;2.90;;
41456;SDS011;27197;51.752;5.220;2023-08-21T06:44:26;10.45;;;3.30;;
41456;SDS011;27197;51.752;5.220;2023-08-21T06:47:00;8.33;;;2.40;;
41456;SDS011;27197;51.752;5.220;2023-08-21T06:49:31;10.08;;;3.80;;
41456;SDS011;27197;51.752;5.220;2023-08-21T06:52:01;8.45;;;3.90;;
41456;SDS011;27197;51.752;5.220;2023-08-21T06:54:31;7.00;;;2.72;;
41456;SDS011;27197;51.752;5.220;2023-08-21T06:57:01;6.80;;;2.10;;
41456;SDS011;27197;51.752;5.220;2023-08-21T06:59:32;8.05;;;3.00;;
41456;SDS011;27197;51.752;5.220;2023-08-21T07:02:02;6.80;;;3.00;;
41456;SDS011;27197;51.752;5.220;2023-08-21T07:04:34;5.05;;;1.95;;
41456;SDS011;27197;51.752;5.220;2023-08-21T07:07:06;3.55;;;1.30;;
41456;SDS011;27197;51.752;5.220;2023-08-21T07:09:37;6.40;;;2.80;;
41456;SDS011;27197;51.752;5.220;2023-08-21T07:12:09;6.35;;;2.20;;
41456;SDS011;27197;51.752;5.220;2023-08-21T07:14:39;6.50;;;2.12;;
41456;SDS011;27197;51.752;5.220;2023-08-21T07:17:11;6.70;;;2.00;;
41456;SDS011;27197;51.752;5.220;2023-08-21T07:19:41;4.33;;;1.55;;
41456;SDS011;27197;51.752;5.220;2023-08-21T07:22:12;10.53;;;1.77;;
41456;SDS011;27197;51.752;5.220;2023-08-21T07:24:42;4.25;;;1.60;;
41456;SDS011;27197;51.752;5.220;2023-08-21T07:27:13;6.62;;;2.00;;
41456;SDS011;27197;51.752;5.220;2023-08-21T07:29:47;5.30;;;2.17;;
41456;SDS011;27197;51.752;5.220;2023-08-21T07:32:18;9.73;;;3.60;;
41456;SDS011;27197;51.752;5.220;2023-08-21T07:34:55;4.72;;;2.37;;
41456;SDS011;27197;51.752;5.220;2023-08-21T07:37:27;4.37;;;2.20;;
41456;SDS011;27197;51.752;5.220;2023-08-21T07:39:58;6.60;;;3.33;;
41456;SDS011;27197;51.752;5.220;2023-08-21T07:42:33;4.47;;;1.85;;
41456;SDS011;27197;51.752;5.220;2023-08-21T07:45:05;7.12;;;3.80;;
41456;SDS011;27197;51.752;5.220;2023-08-21T07:47:36;6.17;;;2.50;;
41456;SDS011;27197;51.752;5.220;2023-08-21T07:50:29;4.28;;;1.90;;
41456;SDS011;27197;51.752;5.220;2023-08-21T07:52:59;4.97;;;2.00;;
41456;SDS011;27197;51.752;5.220;2023-08-21T07:55:29;5.95;;;2.60;;
41456;SDS011;27197;51.752;5.220;2023-08-21T07:57:59;9.95;;;2.83;;
41456;SDS011;27197;51.752;5.220;2023-08-21T08:00:29;8.78;;;1.90;;
41456;SDS011;27197;51.752;5.220;2023-08-21T08:03:00;4.92;;;2.10;;
41456;SDS011;27197;51.752;5.220;2023-08-21T08:05:32;4.83;;;1.65;;
41456;SDS011;27197;51.752;5.220;2023-08-21T08:08:02;6.85;;;1.90;;
41456;SDS011;27197;51.752;5.220;2023-08-21T08:10:33;3.75;;;1.25;;
41456;SDS011;27197;51.752;5.220;2023-08-21T08:13:04;4.55;;;1.62;;
41456;SDS011;27197;51.752;5.220;2023-08-21T08:15:37;5.65;;;1.50;;
41456;SDS011;27197;51.752;5.220;2023-08-21T08:18:12;4.53;;;1.77;;
41456;SDS011;27197;51.752;5.220;2023-08-21T08:20:44;5.42;;;1.40;;
41456;SDS011;27197;51.752;5.220;2023-08-21T08:23:17;6.70;;;2.00;;
41456;SDS011;27197;51.752;5.220;2023-08-21T08:25:49;5.22;;;1.67;;
41456;SDS011;27197;51.752;5.220;2023-08-21T08:28:23;5.58;;;2.50;;
41456;SDS011;27197;51.752;5.220;2023-08-21T08:30:56;4.90;;;1.80;;
41456;SDS011;27197;51.752;5.220;2023-08-21T08:33:26;4.45;;;1.70;;
41456;SDS011;27197;51.752;5.220;2023-08-21T08:35:56;5.25;;;1.55;;
41456;SDS011;27197;51.752;5.220;2023-08-21T08:38:27;9.75;;;2.83;;
41456;SDS011;27197;51.752;5.220;2023-08-21T08:41:00;6.80;;;2.42;;
41456;SDS011;27197;51.752;5.220;2023-08-21T08:43:31;3.47;;;1.40;;
41456;SDS011;27197;51.752;5.220;2023-08-21T08:46:19;4.60;;;1.40;;
41456;SDS011;27197;51.752;5.220;2023-08-21T08:48:51;9.88;;;2.40;;
41456;SDS011;27197;51.752;5.220;2023-08-21T08:51:21;8.45;;;1.85;;
41456;SDS011;27197;51.752;5.220;2023-08-21T08:53:57;5.30;;;1.75;;
41456;SDS011;27197;51.752;5.220;2023-08-21T08:56:47;8.25;;;1.87;;
41456;SDS011;27197;51.752;5.220;2023-08-21T08:59:17;3.77;;;1.37;;
41456;SDS011;27197;51.752;5.220;2023-08-21T09:01:49;6.85;;;2.80;;
41456;SDS011;27197;51.752;5.220;2023-08-21T09:04:22;2.95;;;1.50;;
41456;SDS011;27197;51.752;5.220;2023-08-21T09:07:05;5.12;;;1.42;;
41456;SDS011;27197;51.752;5.220;2023-08-21T09:09:40;6.85;;;2.58;;
41456;SDS011;27197;51.752;5.220;2023-08-21T09:12:13;6.20;;;2.12;;
41456;SDS011;27197;51.752;5.220;2023-08-21T09:14:44;3.90;;;1.20;;
41456;SDS011;27197;51.752;5.220;2023-08-21T09:17:15;2.90;;;1.07;;
41456;SDS011;27197;51.752;5.220;2023-08-21T09:19:45;5.80;;;1.80;;
41456;SDS011;27197;51.752;5.220;2023-08-21T09:22:19;5.37;;;1.95;;
41456;SDS011;27197;51.752;5.220;2023-08-21T09:25:01;4.67;;;1.60;;
41456;SDS011;27197;51.752;5.220;2023-08-21T09:27:39;4.62;;;1.77;;
41456;SDS011;27197;51.752;5.220;2023-08-21T09:30:09;5.92;;;1.60;;
41456;SDS011;27197;51.752;5.220;2023-08-21T09:32:59;5.70;;;1.95;;
41456;SDS011;27197;51.752;5.220;2023-08-21T09:35:32;2.95;;;1.20;;
41456;SDS011;27197;51.752;5.220;2023-08-21T09:38:03;3.65;;;1.70;;
41456;SDS011;27197;51.752;5.220;2023-08-21T09:40:34;3.83;;;1.30;;
41456;SDS011;27197;51.752;5.220;2023-08-21T09:43:05;4.72;;;1.70;;
41456;SDS011;27197;51.752;5.220;2023-08-21T09:45:38;4.58;;;1.32;;
41456;SDS011;27197;51.752;5.220;2023-08-21T09:48:10;3.98;;;1.80;;
41456;SDS011;27197;51.752;5.220;2023-08-21T09:50:40;5.67;;;2.10;;
41456;SDS011;27197;51.752;5.220;2023-08-21T09:53:11;5.85;;;2.15;;
41456;SDS011;27197;51.752;5.220;2023-08-21T09:55:49;6.50;;;2.12;;
41456;SDS011;27197;51.752;5.220;2023-08-21T09:58:21;3.17;;;1.12;;
41456;SDS011;27197;51.752;5.220;2023-08-21T10:00:55;6.60;;;2.15;;
41456;SDS011;27197;51.752;5.220;2023-08-21T10:03:26;4.03;;;1.57;;
41456;SDS011;27197;51.752;5.220;2023-08-21T10:06:02;8.08;;;2.72;;
41456;SDS011;27197;51.752;5.220;2023-08-21T10:08:32;8.30;;;2.00;;
41456;SDS011;27197;51.752;5.220;2023-08-21T10:11:10;6.83;;;2.20;;
41456;SDS011;27197;51.752;5.220;2023-08-21T10:13:40;5.75;;;2.10;;
41456;SDS011;27197;51.752;5.220;2023-08-21T10:16:13;5.22;;;2.15;;
41456;SDS011;27197;51.752;5.220;2023-08-21T10:18:46;4.90;;;2.00;;
41456;SDS011;27197;51.752;5.220;2023-08-21T10:21:19;6.78;;;2.40;;
41456;SDS011;27197;51.752;5.220;2023-08-21T10:23:55;7.65;;;2.05;;
41456;SDS011;27197;51.752;5.220;2023-08-21T10:26:28;5.00;;;1.80;;
41456;SDS011;27197;51.752;5.220;2023-08-21T10:29:02;4.42;;;2.70;;
41456;SDS011;27197;51.752;5.220;2023-08-21T10:31:35;9.10;;;2.65;;
41456;SDS011;27197;51.752;5.220;2023-08-21T10:34:10;8.70;;;2.95;;
41456;SDS011;27197;51.752;5.220;2023-08-21T10:39:33;5.45;;;2.95;;
41456;SDS011;27197;51.752;5.220;2023-08-21T10:42:09;3.87;;;1.75;;
41456;SDS011;27197;51.752;5.220;2023-08-21T10:47:23;5.25;;;1.50;;
41456;SDS011;27197;51.752;5.220;2023-08-21T10:49:54;5.60;;;1.80;;
41456;SDS011;27197;51.752;5.220;2023-08-21T10:52:33;7.58;;;1.90;;
41456;SDS011;27197;51.752;5.220;2023-08-21T10:55:06;4.62;;;1.20;;
41456;SDS011;27197;51.752;5.220;2023-08-21T10:57:54;2.75;;;1.00;;
41456;SDS011;27197;51.752;5.220;2023-08-21T11:00:24;5.15;;;1.27;;
41456;SDS011;27197;51.752;5.220;2023-08-21T11:02:53;2.85;;;0.60;;
41456;SDS011;27197;51.752;5.220;2023-08-21T11:05:22;2.77;;;0.65;;
41456;SDS011;27197;51.752;5.220;2023-08-21T11:07:52;2.75;;;0.85;;
41456;SDS011;27197;51.752;5.220;2023-08-21T11:10:23;4.03;;;1.27;;
41456;SDS011;27197;51.752;5.220;2023-08-21T11:13:12;4.03;;;1.37;;
41456;SDS011;27197;51.752;5.220;2023-08-21T11:15:45;4.58;;;1.27;;
41456;SDS011;27197;51.752;5.220;2023-08-21T11:18:15;6.50;;;1.60;;
41456;SDS011;27197;51.752;5.220;2023-08-21T11:20:50;4.72;;;1.77;;
41456;SDS011;27197;51.752;5.220;2023-08-21T11:23:20;4.00;;;1.50;;
41456;SDS011;27197;51.752;5.220;2023-08-21T11:25:54;4.45;;;1.98;;
41456;SDS011;27197;51.752;5.220;2023-08-21T11:28:26;5.53;;;1.47;;
41456;SDS011;27197;51.752;5.220;2023-08-21T11:30:58;4.10;;;1.27;;
41456;SDS011;27197;51.752;5.220;2023-08-21T11:33:32;5.90;;;1.30;;
41456;SDS011;27197;51.752;5.220;2023-08-21T11:36:03;5.35;;;1.10;;
41456;SDS011;27197;51.752;5.220;2023-08-21T11:38:34;5.15;;;1.57;;
41456;SDS011;27197;51.752;5.220;2023-08-21T11:41:05;6.15;;;1.50;;
41456;SDS011;27197;51.752;5.220;2023-08-21T11:43:35;6.35;;;1.30;;
41456;SDS011;27197;51.752;5.220;2023-08-21T11:46:08;7.75;;;1.70;;
41456;SDS011;27197;51.752;5.220;2023-08-21T11:48:45;3.67;;;1.12;;
41456;SDS011;27197;51.752;5.220;2023-08-21T11:51:14;3.10;;;1.35;;
41456;SDS011;27197;51.752;5.220;2023-08-21T11:53:47;3.22;;;0.70;;
41456;SDS011;27197;51.752;5.220;2023-08-21T11:56:17;6.42;;;1.05;;
41456;SDS011;27197;51.752;5.220;2023-08-21T11:58:51;6.50;;;1.02;;
41456;SDS011;27197;51.752;5.220;2023-08-21T12:04:01;6.15;;;1.77;;
41456;SDS011;27197;51.752;5.220;2023-08-21T12:06:31;6.62;;;1.77;;
41456;SDS011;27197;51.752;5.220;2023-08-21T12:09:02;5.53;;;1.90;;
41456;SDS011;27197;51.752;5.220;2023-08-21T12:11:33;6.42;;;1.47;;
41456;SDS011;27197;51.752;5.220;2023-08-21T12:14:04;5.62;;;2.40;;
41456;SDS011;27197;51.752;5.220;2023-08-21T12:16:37;9.13;;;1.95;;
41456;SDS011;27197;51.752;5.220;2023-08-21T12:19:09;11.03;;;2.95;;
41456;SDS011;27197;51.752;5.220;2023-08-21T12:21:40;3.50;;;1.07;;
41456;SDS011;27197;51.752;5.220;2023-08-21T12:24:11;7.55;;;2.12;;
41456;SDS011;27197;51.752;5.220;2023-08-21T12:26:45;3.37;;;0.88;;
41456;SDS011;27197;51.752;5.220;2023-08-21T12:29:15;4.83;;;1.52;;
41456;SDS011;27197;51.752;5.220;2023-08-21T12:31:47;5.67;;;1.35;;
41456;SDS011;27197;51.752;5.220;2023-08-21T12:34:21;3.17;;;1.07;;
41456;SDS011;27197;51.752;5.220;2023-08-21T12:36:51;7.15;;;1.90;;
41456;SDS011;27197;51.752;5.220;2023-08-21T12:39:23;3.95;;;0.70;;
41456;SDS011;27197;51.752;5.220;2023-08-21T12:41:53;4.80;;;1.50;;
41456;SDS011;27197;51.752;5.220;2023-08-21T12:44:22;2.35;;;0.80;;
41456;SDS011;27197;51.752;5.220;2023-08-21T12:46:52;1.95;;;0.85;;
41456;SDS011;27197;51.752;5.220;2023-08-21T12:49:21;6.10;;;1.15;;
41456;SDS011;27197;51.752;5.220;2023-08-21T12:51:50;3.45;;;1.35;;
41456;SDS011;27197;51.752;5.220;2023-08-21T12:54:24;3.80;;;1.07;;
41456;SDS011;27197;51.752;5.220;2023-08-21T12:56:57;4.37;;;1.10;;
41456;SDS011;27197;51.752;5.220;2023-08-21T12:59:28;8.85;;;2.02;;
41456;SDS011;27197;51.752;5.220;2023-08-21T13:02:05;4.28;;;1.67;;
41456;SDS011;27197;51.752;5.220;2023-08-21T13:04:35;4.10;;;1.27;;
41456;SDS011;27197;51.752;5.220;2023-08-21T13:07:06;4.83;;;2.05;;
41456;SDS011;27197;51.752;5.220;2023-08-21T13:09:38;4.50;;;1.22;;
41456;SDS011;27197;51.752;5.220;2023-08-21T13:12:08;4.12;;;1.00;;
41456;SDS011;27197;51.752;5.220;2023-08-21T13:14:41;1.35;;;0.60;;
41456;SDS011;27197;51.752;5.220;2023-08-21T13:17:11;8.00;;;1.45;;
41456;SDS011;27197;51.752;5.220;2023-08-21T13:19:41;7.15;;;1.50;;
41456;SDS011;27197;51.752;5.220;2023-08-21T13:22:18;5.17;;;1.52;;
41456;SDS011;27197;51.752;5.220;2023-08-21T13:24:48;5.10;;;1.77;;
41456;SDS011;27197;51.752;5.220;2023-08-21T13:27:18;5.60;;;1.60;;
41456;SDS011;27197;51.752;5.220;2023-08-21T13:29:49;4.97;;;1.30;;
41456;SDS011;27197;51.752;5.220;2023-08-21T13:32:21;6.53;;;1.50;;
41456;SDS011;27197;51.752;5.220;2023-08-21T13:34:53;3.20;;;1.25;;
41456;SDS011;27197;51.752;5.220;2023-08-21T13:37:23;4.37;;;1.37;;
41456;SDS011;27197;51.752;5.220;2023-08-21T13:39:54;4.50;;;1.20;;
41456;SDS011;27197;51.752;5.220;2023-08-21T13:42:26;1.95;;;0.93;;
41456;SDS011;27197;51.752;5.220;2023-08-21T13:44:56;3.75;;;1.20;;
41456;SDS011;27197;51.752;5.220;2023-08-21T13:47:27;3.45;;;1.25;;
41456;SDS011;27197;51.752;5.220;2023-08-21T13:49:58;2.42;;;0.90;;
41456;SDS011;27197;51.752;5.220;2023-08-21T13:52:29;1.52;;;0.80;;
41456;SDS011;27197;51.752;5.220;2023-08-21T13:55:00;2.02;;;0.70;;
41456;SDS011;27197;51.752;5.220;2023-08-21T13:57:30;2.12;;;0.95;;
41456;SDS011;27197;51.752;5.220;2023-08-21T14:00:01;2.83;;;1.00;;
41456;SDS011;27197;51.752;5.220;2023-08-21T14:02:32;1.67;;;0.50;;
41456;SDS011;27197;51.752;5.220;2023-08-21T14:05:07;2.20;;;0.90;;
41456;SDS011;27197;51.752;5.220;2023-08-21T14:07:38;5.00;;;1.10;;
41456;SDS011;27197;51.752;5.220;2023-08-21T14:10:13;4.90;;;1.10;;
41456;SDS011;27197;51.752;5.220;2023-08-21T14:12:48;2.22;;;0.90;;
41456;SDS011;27197;51.752;5.220;2023-08-21T14:15:19;4.00;;;1.35;;
41456;SDS011;27197;51.752;5.220;2023-08-21T14:17:50;3.98;;;0.82;;
41456;SDS011;27197;51.752;5.220;2023-08-21T14:22:48;1.75;;;0.60;;
41456;SDS011;27197;51.752;5.220;2023-08-21T14:25:17;2.08;;;0.60;;
41456;SDS011;27197;51.752;5.220;2023-08-21T14:27:51;2.55;;;0.70;;
41456;SDS011;27197;51.752;5.220;2023-08-21T14:30:20;3.05;;;1.12;;
41456;SDS011;27197;51.752;5.220;2023-08-21T14:32:51;3.08;;;1.05;;
41456;SDS011;27197;51.752;5.220;2023-08-21T14:35:22;3.37;;;0.80;;
41456;SDS011;27197;51.752;5.220;2023-08-21T14:37:52;2.70;;;0.70;;
41456;SDS011;27197;51.752;5.220;2023-08-21T14:40:22;1.87;;;0.80;;
41456;SDS011;27197;51.752;5.220;2023-08-21T14:42:53;3.15;;;0.80;;
41456;SDS011;27197;51.752;5.220;2023-08-21T14:45:23;2.87;;;0.60;;
41456;SDS011;27197;51.752;5.220;2023-08-21T14:47:53;5.53;;;1.32;;
41456;SDS011;27197;51.752;5.220;2023-08-21T14:50:23;2.02;;;1.05;;
41456;SDS011;27197;51.752;5.220;2023-08-21T14:52:56;2.12;;;0.70;;
41456;SDS011;27197;51.752;5.220;2023-08-21T14:55:26;2.30;;;0.80;;
41456;SDS011;27197;51.752;5.220;2023-08-21T14:57:58;2.02;;;0.70;;
41456;SDS011;27197;51.752;5.220;2023-08-21T15:00:29;2.22;;;0.70;;
41456;SDS011;27197;51.752;5.220;2023-08-21T15:05:25;3.42;;;0.50;;
41456;SDS011;27197;51.752;5.220;2023-08-21T15:07:59;1.52;;;0.62;;
41456;SDS011;27197;51.752;5.220;2023-08-21T15:10:29;2.87;;;0.60;;
41456;SDS011;27197;51.752;5.220;2023-08-21T15:13:00;2.27;;;0.75;;
41456;SDS011;27197;51.752;5.220;2023-08-21T15:15:30;1.92;;;0.90;;
41456;SDS011;27197;51.752;5.220;2023-08-21T15:18:00;1.98;;;0.95;;
41456;SDS011;27197;51.752;5.220;2023-08-21T15:20:30;1.22;;;0.68;;
41456;SDS011;27197;51.752;5.220;2023-08-21T16:07:56;2.08;;;0.93;;
41456;SDS011;27197;51.752;5.220;2023-08-21T16:10:30;1.42;;;0.62;;
41456;SDS011;27197;51.752;5.220;2023-08-21T16:13:02;1.17;;;0.70;;
41456;SDS011;27197;51.752;5.220;2023-08-21T16:15:36;4.33;;;0.70;;
41456;SDS011;27197;51.752;5.220;2023-08-21T16:18:06;1.27;;;0.55;;
41456;SDS011;27197;51.752;5.220;2023-08-21T16:20:38;1.57;;;0.75;;
41456;SDS011;27197;51.752;5.220;2023-08-21T16:23:12;2.70;;;0.80;;
41456;SDS011;27197;51.752;5.220;2023-08-21T16:25:45;1.65;;;0.60;;
41456;SDS011;27197;51.752;5.220;2023-08-21T16:28:15;1.50;;;0.60;;
41456;SDS011;27197;51.752;5.220;2023-08-21T16:30:48;2.42;;;0.60;;
41456;SDS011;27197;51.752;5.220;2023-08-21T16:33:18;1.82;;;0.65;;
41456;SDS011;27197;51.752;5.220;2023-08-21T16:35:49;1.20;;;0.70;;
41456;SDS011;27197;51.752;5.220;2023-08-21T16:38:19;1.45;;;0.90;;
41456;SDS011;27197;51.752;5.220;2023-08-21T16:40:51;1.90;;;0.70;;
41456;SDS011;27197;51.752;5.220;2023-08-21T16:43:21;2.77;;;0.70;;
41456;SDS011;27197;51.752;5.220;2023-08-21T16:45:52;1.87;;;0.70;;
41456;SDS011;27197;51.752;5.220;2023-08-21T16:48:29;2.35;;;0.82;;
41456;SDS011;27197;51.752;5.220;2023-08-21T16:50:59;1.60;;;0.60;;
41456;SDS011;27197;51.752;5.220;2023-08-21T16:53:34;2.62;;;0.82;;
41456;SDS011;27197;51.752;5.220;2023-08-21T16:56:05;0.95;;;0.70;;
41456;SDS011;27197;51.752;5.220;2023-08-21T16:58:43;0.82;;;0.60;;
41456;SDS011;27197;51.752;5.220;2023-08-21T17:01:13;3.10;;;0.90;;
41456;SDS011;27197;51.752;5.220;2023-08-21T17:03:43;0.95;;;0.70;;
41456;SDS011;27197;51.752;5.220;2023-08-21T17:06:18;1.65;;;0.60;;
41456;SDS011;27197;51.752;5.220;2023-08-21T17:08:48;1.37;;;0.47;;
41456;SDS011;27197;51.752;5.220;2023-08-21T17:11:19;1.55;;;0.60;;
41456;SDS011;27197;51.752;5.220;2023-08-21T17:13:49;1.57;;;0.60;;
41456;SDS011;27197;51.752;5.220;2023-08-21T17:16:23;1.12;;;0.70;;
41456;SDS011;27197;51.752;5.220;2023-08-21T17:18:53;1.60;;;0.80;;
41456;SDS011;27197;51.752;5.220;2023-08-21T17:21:26;3.10;;;0.70;;
41456;SDS011;27197;51.752;5.220;2023-08-21T17:23:55;3.95;;;0.60;;
41456;SDS011;27197;51.752;5.220;2023-08-21T17:26:29;0.57;;;0.50;;
41456;SDS011;27197;51.752;5.220;2023-08-21T17:28:59;1.47;;;0.72;;
41456;SDS011;27197;51.752;5.220;2023-08-21T17:31:32;2.02;;;0.98;;
41456;SDS011;27197;51.752;5.220;2023-08-21T17:34:02;1.82;;;0.57;;